Time;durP1;ratioP1;P1;durP2;ratioP2;P2;SDS_P1;SDS_P2;PMS_P1;PMS_P2;Temp;Humidity;BMP_temperature;BMP_pressure;BME280_temperature;BME280_humidity;BME280_pressure;Samples;Min_cycle;Max_cycle;Signal;HPM_P1;HPM_P2
2023/10/25 00:01:44;;;;;;;3.50;2.97;;;;;;;;;;5129411;27;20321;-44
2023/10/25 00:04:11;;;;;;;2.40;2.30;;;;;;;;;;5128828;27;20278;-44
2023/10/25 00:06:38;;;;;;;3.53;3.10;;;;;;;;;;5126159;27;20204;-43
2023/10/25 00:09:06;;;;;;;2.40;2.30;;;;;;;;;;5129083;27;20223;-43
2023/10/25 00:11:34;;;;;;;2.00;1.90;;;;;;;;;;5118320;27;20206;-41
2023/10/25 00:14:03;;;;;;;2.03;1.93;;;;;;;;;;5123513;27;20221;-44
2023/10/25 00:16:30;;;;;;;2.53;2.33;;;;;;;;;;5129852;27;20219;-46
2023/10/25 00:18:57;;;;;;;3.17;2.40;;;;;;;;;;5128900;27;20222;-43
2023/10/25 00:21:24;;;;;;;3.17;2.90;;;;;;;;;;5121442;27;20199;-46
2023/10/25 00:23:52;;;;;;;2.23;2.10;;;;;;;;;;5128790;27;20208;-42
2023/10/25 00:26:19;;;;;;;3.03;2.83;;;;;;;;;;5120792;27;20210;-44
2023/10/25 00:28:47;;;;;;;3.07;2.87;;;;;;;;;;5125844;27;20219;-42
2023/10/25 00:31:14;;;;;;;2.93;2.73;;;;;;;;;;5129610;27;20531;-43
2023/10/25 00:33:41;;;;;;;2.17;2.00;;;;;;;;;;5124798;27;20200;-40
2023/10/25 00:36:08;;;;;;;2.50;2.30;;;;;;;;;;5124386;27;20254;-45
2023/10/25 00:38:35;;;;;;;2.83;2.63;;;;;;;;;;5130015;27;20227;-40
2023/10/25 00:41:03;;;;;;;3.30;2.73;;;;;;;;;;5124441;27;20214;-40
2023/10/25 00:43:30;;;;;;;2.70;2.50;;;;;;;;;;5124820;27;20203;-45
2023/10/25 00:46:12;;;;;;;4.33;3.00;;;;;;;;;;5129537;27;20287;-43
2023/10/25 00:48:39;;;;;;;5.40;2.77;;;;;;;;;;5130343;27;20546;-40
2023/10/25 00:51:07;;;;;;;2.17;2.07;;;;;;;;;;5117814;27;20211;-43
2023/10/25 00:53:35;;;;;;;2.83;2.60;;;;;;;;;;5120678;27;20569;-45
2023/10/25 00:56:02;;;;;;;2.90;2.70;;;;;;;;;;5124405;27;20590;-43
2023/10/25 00:58:29;;;;;;;4.60;2.80;;;;;;;;;;5122857;27;20227;-41
2023/10/25 01:00:57;;;;;;;8.63;2.50;;;;;;;;;;5121487;27;20212;-40
2023/10/25 01:03:25;;;;;;;2.40;2.20;;;;;;;;;;5120584;27;20207;-46
2023/10/25 01:05:53;;;;;;;2.30;2.20;;;;;;;;;;5127998;27;20207;-44
2023/10/25 01:08:20;;;;;;;4.03;2.13;;;;;;;;;;5127644;27;20645;-42
2023/10/25 01:10:48;;;;;;;2.57;2.30;;;;;;;;;;5120059;27;20199;-41
2023/10/25 01:13:15;;;;;;;2.57;2.37;;;;;;;;;;5124353;27;20298;-43
2023/10/25 01:15:42;;;;;;;5.00;2.80;;;;;;;;;;5135682;27;20348;-38
2023/10/25 01:18:10;;;;;;;4.20;2.43;;;;;;;;;;5139676;27;20339;-41
2023/10/25 01:20:38;;;;;;;3.20;2.20;;;;;;;;;;5136698;27;20205;-42
2023/10/25 01:23:07;;;;;;;2.63;2.43;;;;;;;;;;5135087;27;20203;-44
2023/10/25 01:25:34;;;;;;;2.30;2.20;;;;;;;;;;5127989;27;20203;-40
2023/10/25 01:28:01;;;;;;;4.23;3.00;;;;;;;;;;5127053;27;20199;-43
2023/10/25 01:30:28;;;;;;;2.60;2.40;;;;;;;;;;5133071;27;20230;-44
2023/10/25 01:32:55;;;;;;;2.40;2.20;;;;;;;;;;5133976;27;20210;-40
2023/10/25 01:35:22;;;;;;;2.40;2.20;;;;;;;;;;5128649;27;20199;-45
2023/10/25 01:37:50;;;;;;;3.93;2.37;;;;;;;;;;5128966;27;20328;-45
2023/10/25 01:40:18;;;;;;;2.30;2.10;;;;;;;;;;5128141;27;20746;-45
2023/10/25 01:42:45;;;;;;;4.87;3.13;;;;;;;;;;5131582;27;20210;-44
2023/10/25 01:45:12;;;;;;;2.10;1.90;;;;;;;;;;5132510;27;20203;-45
2023/10/25 01:47:40;;;;;;;2.13;1.90;;;;;;;;;;5132872;27;20427;-41
2023/10/25 01:50:08;;;;;;;3.13;2.83;;;;;;;;;;5124210;27;20228;-47
2023/10/25 01:52:35;;;;;;;2.80;2.60;;;;;;;;;;5132623;27;20264;-42
2023/10/25 01:55:02;;;;;;;2.87;2.67;;;;;;;;;;5128876;27;20217;-42
2023/10/25 01:57:31;;;;;;;5.97;2.77;;;;;;;;;;5128248;27;20234;-45
2023/10/25 01:59:58;;;;;;;3.63;2.77;;;;;;;;;;5132044;27;20223;-44
2023/10/25 02:02:25;;;;;;;4.60;2.93;;;;;;;;;;5126261;27;20306;-42
2023/10/25 02:04:52;;;;;;;3.03;2.67;;;;;;;;;;5118283;27;20212;-43
2023/10/25 02:07:19;;;;;;;3.00;2.80;;;;;;;;;;5127015;27;20203;-40
2023/10/25 02:09:46;;;;;;;2.27;2.07;;;;;;;;;;5132383;27;20215;-44
2023/10/25 02:12:14;;;;;;;2.57;2.37;;;;;;;;;;5114977;27;20199;-46
2023/10/25 02:14:43;;;;;;;2.23;2.07;;;;;;;;;;5127948;27;20199;-46
2023/10/25 02:17:10;;;;;;;2.40;2.23;;;;;;;;;;5131522;27;20211;-41
2023/10/25 02:19:39;;;;;;;3.17;2.27;;;;;;;;;;5121304;27;20219;-43
2023/10/25 02:22:06;;;;;;;2.70;2.50;;;;;;;;;;5128675;27;20214;-44
2023/10/25 02:24:34;;;;;;;3.33;2.20;;;;;;;;;;5129529;27;20207;-41
2023/10/25 02:27:01;;;;;;;3.07;2.53;;;;;;;;;;5118232;27;20218;-47
2023/10/25 02:29:28;;;;;;;2.60;2.40;;;;;;;;;;5125072;27;20230;-43
2023/10/25 02:31:56;;;;;;;2.00;1.90;;;;;;;;;;5131457;27;20225;-45
2023/10/25 02:34:23;;;;;;;2.30;2.20;;;;;;;;;;5124675;27;20208;-41
2023/10/25 02:36:51;;;;;;;2.77;2.57;;;;;;;;;;5129493;27;20210;-46
2023/10/25 02:39:18;;;;;;;4.30;2.67;;;;;;;;;;5131020;27;20343;-43
2023/10/25 02:41:45;;;;;;;3.17;2.87;;;;;;;;;;5117315;27;20211;-44
2023/10/25 02:44:12;;;;;;;4.50;2.53;;;;;;;;;;5124562;27;20211;-44
2023/10/25 02:46:39;;;;;;;2.33;2.13;;;;;;;;;;5131782;27;20207;-40
2023/10/25 02:49:08;;;;;;;6.87;2.93;;;;;;;;;;5131232;27;20412;-40
2023/10/25 02:51:36;;;;;;;20.87;3.33;;;;;;;;;;5122657;27;20549;-47
2023/10/25 02:54:03;;;;;;;12.47;2.83;;;;;;;;;;5129479;27;20238;-40
2023/10/25 02:56:30;;;;;;;3.43;3.13;;;;;;;;;;5121240;27;20576;-40
2023/10/25 02:58:58;;;;;;;2.20;2.10;;;;;;;;;;5125234;27;20310;-43
2023/10/25 03:01:25;;;;;;;2.97;2.77;;;;;;;;;;5132227;27;20203;-41
2023/10/25 03:03:52;;;;;;;7.00;3.20;;;;;;;;;;5132184;27;20199;-44
2023/10/25 03:06:21;;;;;;;2.53;2.33;;;;;;;;;;5123916;27;20210;-44
2023/10/25 03:08:48;;;;;;;4.27;3.13;;;;;;;;;;5131961;27;20314;-46
2023/10/25 03:11:15;;;;;;;15.57;3.77;;;;;;;;;;5126527;27;20639;-45
2023/10/25 03:13:42;;;;;;;3.00;2.80;;;;;;;;;;5131626;27;20203;-42
2023/10/25 03:16:09;;;;;;;2.70;2.50;;;;;;;;;;5131668;27;20207;-44
2023/10/25 03:18:36;;;;;;;12.13;3.50;;;;;;;;;;5126443;27;20220;-44
2023/10/25 03:21:04;;;;;;;17.43;3.67;;;;;;;;;;5121498;27;20207;-43
2023/10/25 03:23:33;;;;;;;5.10;3.07;;;;;;;;;;5133421;27;20199;-41
2023/10/25 03:26:04;;;;;;;3.33;3.00;;;;;;;;;;5120541;27;20218;-40
2023/10/25 03:28:31;;;;;;;6.17;3.37;;;;;;;;;;5128859;27;20199;-43
2023/10/25 03:30:58;;;;;;;5.17;3.03;;;;;;;;;;5134044;27;20238;-42
2023/10/25 03:33:25;;;;;;;9.30;3.33;;;;;;;;;;5134406;27;20205;-41
2023/10/25 03:35:53;;;;;;;3.33;3.03;;;;;;;;;;5126134;27;20259;-44
2023/10/25 03:38:21;;;;;;;4.10;3.07;;;;;;;;;;5125013;27;20231;-44
2023/10/25 03:40:50;;;;;;;4.13;2.87;;;;;;;;;;5122239;27;20195;-40
2023/10/25 03:43:17;;;;;;;8.10;3.20;;;;;;;;;;5126585;27;20225;-44
2023/10/25 03:45:44;;;;;;;11.47;3.17;;;;;;;;;;5130736;27;20202;-44
2023/10/25 03:48:11;;;;;;;9.70;2.90;;;;;;;;;;5133206;27;20203;-41
2023/10/25 03:50:38;;;;;;;3.70;2.77;;;;;;;;;;5131315;27;20214;-38
2023/10/25 03:53:06;;;;;;;10.73;3.13;;;;;;;;;;5130834;27;20209;-40
2023/10/25 03:55:33;;;;;;;2.57;2.27;;;;;;;;;;5121910;27;20321;-43
2023/10/25 03:58:01;;;;;;;7.63;3.10;;;;;;;;;;5125149;27;20232;-42
2023/10/25 04:00:28;;;;;;;4.07;2.93;;;;;;;;;;5141559;27;20221;-46
2023/10/25 04:02:55;;;;;;;5.10;3.00;;;;;;;;;;5133975;27;20718;-43
2023/10/25 04:05:23;;;;;;;2.90;2.57;;;;;;;;;;5123407;27;20191;-43
2023/10/25 04:07:52;;;;;;;2.53;2.33;;;;;;;;;;5125136;27;20254;-41
2023/10/25 04:10:20;;;;;;;2.47;2.27;;;;;;;;;;5128360;27;20280;-40
2023/10/25 04:12:47;;;;;;;3.03;2.77;;;;;;;;;;5120699;27;20234;-44
2023/10/25 04:15:15;;;;;;;2.90;2.70;;;;;;;;;;5131569;27;20211;-39
2023/10/25 04:17:43;;;;;;;2.90;2.70;;;;;;;;;;5132966;27;20203;-37
2023/10/25 04:20:11;;;;;;;3.50;3.20;;;;;;;;;;5128713;27;20500;-43
2023/10/25 04:22:38;;;;;;;2.83;2.63;;;;;;;;;;5131805;27;20206;-40
2023/10/25 04:25:06;;;;;;;3.50;3.20;;;;;;;;;;5126663;27;20207;-41
2023/10/25 04:27:33;;;;;;;3.00;2.80;;;;;;;;;;5115696;27;20260;-43
2023/10/25 04:30:00;;;;;;;2.90;2.70;;;;;;;;;;5125961;27;20227;-43
2023/10/25 04:32:30;;;;;;;3.80;2.90;;;;;;;;;;5129811;27;20298;-46
2023/10/25 04:34:57;;;;;;;3.90;3.60;;;;;;;;;;5128245;27;20214;-44
2023/10/25 04:37:24;;;;;;;6.00;3.53;;;;;;;;;;5143885;27;20202;-41
2023/10/25 04:39:51;;;;;;;2.90;2.70;;;;;;;;;;5137392;27;20239;-42
2023/10/25 04:42:18;;;;;;;3.07;2.87;;;;;;;;;;5121592;27;20214;-40
2023/10/25 04:44:45;;;;;;;2.67;2.47;;;;;;;;;;5128984;27;20198;-43
2023/10/25 04:47:13;;;;;;;4.20;2.73;;;;;;;;;;5134027;27;20196;-41
2023/10/25 04:49:42;;;;;;;2.70;2.50;;;;;;;;;;5141629;27;20217;-43
2023/10/25 04:52:09;;;;;;;3.43;3.13;;;;;;;;;;5124520;27;20210;-46
2023/10/25 04:54:36;;;;;;;3.53;2.63;;;;;;;;;;5132873;27;20195;-44
2023/10/25 04:57:03;;;;;;;2.33;2.20;;;;;;;;;;5113387;27;20212;-45
2023/10/25 04:59:31;;;;;;;3.87;2.83;;;;;;;;;;5132678;27;20223;-43
2023/10/25 05:01:58;;;;;;;10.93;2.80;;;;;;;;;;5132675;27;20203;-44
2023/10/25 05:04:25;;;;;;;9.03;3.33;;;;;;;;;;5132469;27;20210;-42
2023/10/25 05:06:54;;;;;;;5.93;2.77;;;;;;;;;;5131771;27;20486;-44
2023/10/25 05:09:21;;;;;;;3.13;2.90;;;;;;;;;;5130648;27;20607;-43
2023/10/25 05:11:53;;;;;;;3.90;3.30;;;;;;;;;;5117484;27;20208;-42
2023/10/25 05:14:20;;;;;;;3.43;2.93;;;;;;;;;;5130950;27;20203;-42
2023/10/25 05:16:47;;;;;;;2.83;2.63;;;;;;;;;;5132071;27;20210;-43
2023/10/25 05:19:15;;;;;;;7.13;3.80;;;;;;;;;;5137369;27;20231;-42
2023/10/25 05:21:44;;;;;;;2.97;2.77;;;;;;;;;;5119515;27;20200;-42
2023/10/25 05:24:13;;;;;;;4.17;3.13;;;;;;;;;;5126911;27;20207;-44
2023/10/25 05:26:40;;;;;;;3.40;2.67;;;;;;;;;;5120416;27;20199;-40
2023/10/25 05:29:07;;;;;;;3.47;3.17;;;;;;;;;;5131179;27;20225;-43
2023/10/25 05:31:35;;;;;;;2.80;2.60;;;;;;;;;;5131975;27;20213;-42
2023/10/25 05:34:03;;;;;;;2.97;2.63;;;;;;;;;;5129452;27;20217;-45
2023/10/25 05:36:30;;;;;;;7.70;3.53;;;;;;;;;;5118005;27;20200;-44
2023/10/25 05:39:00;;;;;;;5.03;3.13;;;;;;;;;;5131177;27;20241;-41
2023/10/25 05:41:30;;;;;;;2.60;2.40;;;;;;;;;;5114870;27;20203;-45
2023/10/25 05:44:02;;;;;;;2.43;2.23;;;;;;;;;;5128398;27;20575;-46
2023/10/25 05:46:30;;;;;;;2.70;2.50;;;;;;;;;;5128778;27;20206;-46
2023/10/25 05:48:57;;;;;;;3.30;2.50;;;;;;;;;;5125573;27;20227;-45
2023/10/25 05:51:25;;;;;;;3.23;2.93;;;;;;;;;;5119516;27;20202;-44
2023/10/25 05:53:52;;;;;;;3.30;2.93;;;;;;;;;;5128970;27;20210;-44
2023/10/25 05:56:24;;;;;;;3.60;2.77;;;;;;;;;;5119281;27;20205;-40
2023/10/25 05:58:52;;;;;;;3.07;2.77;;;;;;;;;;5128318;27;20697;-43
2023/10/25 06:01:20;;;;;;;3.20;2.90;;;;;;;;;;5131884;27;20218;-42
2023/10/25 06:03:48;;;;;;;5.03;3.63;;;;;;;;;;5130194;27;20199;-44
2023/10/25 06:06:17;;;;;;;3.63;3.03;;;;;;;;;;5124168;27;20212;-41
2023/10/25 06:08:45;;;;;;;3.47;3.17;;;;;;;;;;5133020;27;20344;-41
2023/10/25 06:11:12;;;;;;;2.37;2.13;;;;;;;;;;5121407;27;20245;-44
2023/10/25 06:13:40;;;;;;;2.60;2.40;;;;;;;;;;5135249;27;20207;-41
2023/10/25 06:16:08;;;;;;;3.13;2.83;;;;;;;;;;5135074;27;20210;-42
2023/10/25 06:18:37;;;;;;;3.20;2.90;;;;;;;;;;5126722;27;20223;-39
2023/10/25 06:21:04;;;;;;;2.57;2.37;;;;;;;;;;5124834;27;20226;-38
2023/10/25 06:23:31;;;;;;;4.80;3.33;;;;;;;;;;5135200;27;20289;-43
2023/10/25 06:25:58;;;;;;;3.00;2.70;;;;;;;;;;5128335;27;20217;-40
2023/10/25 06:28:25;;;;;;;4.07;3.13;;;;;;;;;;5134028;27;20200;-42
2023/10/25 06:30:52;;;;;;;3.63;3.30;;;;;;;;;;5141178;27;20210;-40
2023/10/25 06:33:21;;;;;;;3.20;2.80;;;;;;;;;;5129779;27;20208;-43
2023/10/25 06:35:48;;;;;;;2.93;2.60;;;;;;;;;;5134357;27;20202;-35
2023/10/25 06:38:15;;;;;;;3.30;3.00;;;;;;;;;;5134037;27;20207;-44
2023/10/25 06:40:43;;;;;;;3.37;2.93;;;;;;;;;;5133417;27;20218;-42
2023/10/25 06:43:10;;;;;;;3.17;2.50;;;;;;;;;;5131077;27;20217;-46
2023/10/25 06:45:38;;;;;;;2.83;2.63;;;;;;;;;;5142536;27;20205;-41
2023/10/25 06:48:05;;;;;;;3.17;2.60;;;;;;;;;;5134041;27;20227;-45
2023/10/25 06:50:34;;;;;;;3.17;2.87;;;;;;;;;;5130091;27;20614;-43
2023/10/25 06:53:02;;;;;;;2.87;2.67;;;;;;;;;;5130320;27;20204;-39
2023/10/25 06:55:29;;;;;;;2.67;2.47;;;;;;;;;;5129814;27;20203;-40
2023/10/25 06:57:57;;;;;;;3.00;2.70;;;;;;;;;;5128170;27;20661;-44
2023/10/25 07:00:24;;;;;;;2.90;2.60;;;;;;;;;;5133524;27;20691;-42
2023/10/25 07:02:53;;;;;;;2.87;2.57;;;;;;;;;;5130374;27;20724;-40
2023/10/25 07:05:21;;;;;;;3.27;2.53;;;;;;;;;;5127096;27;20200;-45
2023/10/25 07:07:50;;;;;;;2.60;2.40;;;;;;;;;;5133922;27;20211;-44
2023/10/25 07:10:17;;;;;;;3.37;3.07;;;;;;;;;;5128909;27;20227;-43
2023/10/25 07:12:44;;;;;;;3.30;2.97;;;;;;;;;;5133569;27;20195;-40
2023/10/25 07:15:12;;;;;;;2.70;2.50;;;;;;;;;;5133762;27;20234;-40
2023/10/25 07:17:39;;;;;;;3.33;2.53;;;;;;;;;;5125552;27;20206;-43
2023/10/25 07:20:07;;;;;;;2.53;2.33;;;;;;;;;;5122632;27;20220;-38
2023/10/25 07:22:34;;;;;;;3.17;2.50;;;;;;;;;;5129250;27;20199;-44
2023/10/25 07:25:02;;;;;;;2.90;2.70;;;;;;;;;;5131547;27;20218;-42
2023/10/25 07:27:29;;;;;;;2.23;2.03;;;;;;;;;;5122825;27;20567;-41
2023/10/25 07:29:56;;;;;;;4.00;2.70;;;;;;;;;;5131521;27;20251;-45
2023/10/25 07:32:24;;;;;;;3.43;2.67;;;;;;;;;;5130966;27;20222;-43
2023/10/25 07:34:51;;;;;;;4.00;2.87;;;;;;;;;;5115975;27;20215;-45
2023/10/25 07:37:18;;;;;;;3.00;2.80;;;;;;;;;;5119641;27;20207;-41
2023/10/25 07:39:45;;;;;;;5.60;2.63;;;;;;;;;;5133068;27;20232;-40
2023/10/25 07:42:13;;;;;;;5.20;3.30;;;;;;;;;;5123252;27;20211;-44
2023/10/25 07:44:41;;;;;;;4.00;3.20;;;;;;;;;;5131584;27;20649;-45
2023/10/25 07:47:08;;;;;;;3.10;2.67;;;;;;;;;;5132906;27;20209;-44
2023/10/25 07:49:35;;;;;;;4.17;2.60;;;;;;;;;;5121354;27;20257;-40
2023/10/25 07:52:03;;;;;;;2.67;2.47;;;;;;;;;;5129499;27;20499;-44
2023/10/25 07:54:30;;;;;;;3.50;3.20;;;;;;;;;;5133227;27;20203;-40
2023/10/25 07:56:57;;;;;;;4.40;3.00;;;;;;;;;;5123986;27;20199;-44
2023/10/25 07:59:25;;;;;;;3.10;2.80;;;;;;;;;;5132517;27;20229;-41
2023/10/25 08:01:53;;;;;;;4.10;3.70;;;;;;;;;;5134152;27;20294;-42
2023/10/25 08:04:20;;;;;;;3.97;2.83;;;;;;;;;;5130911;27;20210;-43
2023/10/25 08:06:47;;;;;;;4.87;3.50;;;;;;;;;;5117549;27;20252;-43
2023/10/25 08:09:14;;;;;;;3.80;3.47;;;;;;;;;;5133210;27;20593;-38
2023/10/25 08:11:41;;;;;;;3.87;3.47;;;;;;;;;;5122342;27;20209;-45
2023/10/25 08:14:08;;;;;;;4.83;3.53;;;;;;;;;;5132819;27;20208;-42
2023/10/25 08:16:39;;;;;;;3.87;3.50;;;;;;;;;;5132874;27;20213;-44
2023/10/25 08:19:06;;;;;;;3.50;3.20;;;;;;;;;;5133170;27;20238;-42
2023/10/25 08:21:33;;;;;;;3.60;3.30;;;;;;;;;;5120105;27;20203;-43
2023/10/25 08:24:01;;;;;;;3.73;3.37;;;;;;;;;;5134833;27;20204;-43
2023/10/25 08:26:28;;;;;;;3.83;3.43;;;;;;;;;;5126667;27;20257;-38
2023/10/25 08:28:55;;;;;;;3.80;3.00;;;;;;;;;;5133831;27;20223;-45
2023/10/25 08:31:22;;;;;;;5.00;3.80;;;;;;;;;;5142308;27;20302;-43
2023/10/25 08:33:51;;;;;;;4.17;2.93;;;;;;;;;;5140281;27;20206;-41
2023/10/25 08:36:18;;;;;;;3.33;3.03;;;;;;;;;;5120477;27;20295;-45
2023/10/25 08:38:45;;;;;;;5.37;3.30;;;;;;;;;;5138704;27;20214;-45
2023/10/25 08:41:12;;;;;;;4.27;3.30;;;;;;;;;;5126099;27;20230;-43
2023/10/25 08:43:40;;;;;;;2.83;2.63;;;;;;;;;;5132405;27;20558;-41
2023/10/25 08:46:07;;;;;;;3.37;3.07;;;;;;;;;;5132967;27;20207;-40
2023/10/25 08:48:35;;;;;;;3.33;3.03;;;;;;;;;;5129439;27;20233;-41
2023/10/25 08:51:05;;;;;;;3.40;3.10;;;;;;;;;;5129707;27;20214;-44
2023/10/25 08:53:34;;;;;;;2.83;2.53;;;;;;;;;;5132647;27;20238;-44
2023/10/25 08:56:01;;;;;;;2.90;2.60;;;;;;;;;;5129496;27;20235;-44
2023/10/25 08:58:28;;;;;;;3.13;2.70;;;;;;;;;;5128587;27;20205;-42
2023/10/25 09:00:56;;;;;;;3.13;2.80;;;;;;;;;;5132325;27;20233;-42
2023/10/25 09:03:39;;;;;;;3.17;2.63;;;;;;;;;;5140949;27;20209;-42
2023/10/25 09:06:08;;;;;;;2.87;2.63;;;;;;;;;;5129234;27;20214;-44
2023/10/25 09:08:36;;;;;;;2.40;2.20;;;;;;;;;;5131921;27;20227;-39
2023/10/25 09:11:04;;;;;;;2.27;2.07;;;;;;;;;;5122030;27;20204;-39
2023/10/25 09:13:31;;;;;;;2.57;2.40;;;;;;;;;;5129010;27;20294;-45
2023/10/25 09:16:03;;;;;;;2.80;2.17;;;;;;;;;;5141253;27;20210;-43
2023/10/25 09:18:31;;;;;;;3.97;2.50;;;;;;;;;;5132192;27;20660;-38
2023/10/25 09:20:59;;;;;;;3.27;2.87;;;;;;;;;;5122015;27;20215;-43
2023/10/25 09:23:28;;;;;;;3.37;3.07;;;;;;;;;;5132691;27;20537;-43
2023/10/25 09:25:55;;;;;;;7.53;3.73;;;;;;;;;;5127593;27;20417;-41
2023/10/25 09:28:27;;;;;;;3.63;3.30;;;;;;;;;;5137553;27;20199;-44
2023/10/25 09:30:55;;;;;;;3.80;3.50;;;;;;;;;;5137481;27;20206;-43
2023/10/25 09:33:22;;;;;;;4.73;3.00;;;;;;;;;;5134061;27;20204;-43
2023/10/25 09:35:49;;;;;;;4.80;3.30;;;;;;;;;;5133393;27;20211;-44
2023/10/25 09:38:16;;;;;;;3.00;2.70;;;;;;;;;;5136401;27;20207;-42
2023/10/25 09:40:46;;;;;;;3.40;2.70;;;;;;;;;;5127140;27;20219;-43
2023/10/25 09:43:15;;;;;;;3.13;2.67;;;;;;;;;;5130343;27;20567;-39
2023/10/25 09:45:44;;;;;;;2.23;2.03;;;;;;;;;;5135870;27;20210;-46
2023/10/25 09:48:12;;;;;;;2.97;2.67;;;;;;;;;;5135925;27;20215;-44
2023/10/25 09:50:42;;;;;;;3.33;1.80;;;;;;;;;;5130288;27;20649;-45
2023/10/25 09:53:12;;;;;;;2.00;1.60;;;;;;;;;;5130217;27;20290;-43
2023/10/25 09:55:42;;;;;;;1.60;1.20;;;;;;;;;;5134228;27;20519;-43
2023/10/25 09:58:11;;;;;;;2.93;2.10;;;;;;;;;;5128225;27;20202;-42
2023/10/25 10:00:38;;;;;;;2.77;2.57;;;;;;;;;;5134931;27;20230;-44
2023/10/25 10:03:08;;;;;;;2.23;2.00;;;;;;;;;;5134224;27;20208;-40
2023/10/25 10:05:38;;;;;;;3.87;2.40;;;;;;;;;;5127648;27;20227;-45
2023/10/25 10:08:07;;;;;;;1.90;1.80;;;;;;;;;;5130342;27;20203;-46
2023/10/25 10:10:39;;;;;;;1.30;1.20;;;;;;;;;;5133845;27;20226;-45
2023/10/25 10:13:16;;;;;;;1.87;1.10;;;;;;;;;;5130106;27;20211;-45
2023/10/25 10:15:58;;;;;;;0.80;0.80;;;;;;;;;;5144419;27;20210;-43
2023/10/25 10:18:28;;;;;;;1.30;1.10;;;;;;;;;;5133243;27;20256;-42
2023/10/25 10:21:01;;;;;;;1.63;0.70;;;;;;;;;;5130507;27;20681;-41
2023/10/25 10:23:35;;;;;;;0.90;0.90;;;;;;;;;;5144175;27;20644;-43
2023/10/25 10:26:04;;;;;;;0.70;0.70;;;;;;;;;;5126589;27;20207;-42
2023/10/25 10:28:41;;;;;;;0.83;0.83;;;;;;;;;;5134395;27;20218;-43
2023/10/25 10:31:08;;;;;;;1.33;1.00;;;;;;;;;;5134789;27;20213;-42
2023/10/25 10:33:36;;;;;;;0.90;0.90;;;;;;;;;;5132258;27;20199;-41
2023/10/25 10:36:03;;;;;;;1.40;1.00;;;;;;;;;;5130256;27;20208;-44
2023/10/25 10:39:00;;;;;;;0.90;0.90;;;;;;;;;;5143208;27;20225;-45
2023/10/25 10:41:29;;;;;;;1.10;1.00;;;;;;;;;;5130044;27;20249;-39
2023/10/25 10:43:58;;;;;;;1.07;1.07;;;;;;;;;;5136599;27;20203;-43
2023/10/25 10:46:27;;;;;;;0.93;0.93;;;;;;;;;;5133859;27;20199;-43
2023/10/25 10:48:56;;;;;;;1.20;1.10;;;;;;;;;;5120751;27;20234;-41
2023/10/25 10:51:23;;;;;;;0.87;0.87;;;;;;;;;;5134485;27;20210;-43
2023/10/25 10:53:50;;;;;;;1.20;1.10;;;;;;;;;;5135345;27;20213;-43
2023/10/25 10:56:17;;;;;;;0.93;0.90;;;;;;;;;;5125975;27;20232;-41
2023/10/25 10:58:46;;;;;;;0.90;0.90;;;;;;;;;;5135592;27;20310;-43
2023/10/25 11:01:13;;;;;;;1.00;0.80;;;;;;;;;;5141808;27;20218;-41
2023/10/25 11:03:41;;;;;;;0.80;0.80;;;;;;;;;;5136330;27;20204;-43
2023/10/25 11:06:10;;;;;;;0.90;0.90;;;;;;;;;;5123976;27;20206;-44
2023/10/25 11:08:37;;;;;;;2.07;0.67;;;;;;;;;;5132015;27;20720;-45
2023/10/25 11:11:04;;;;;;;0.70;0.70;;;;;;;;;;5124971;27;20218;-43
2023/10/25 11:13:31;;;;;;;2.03;1.00;;;;;;;;;;5133302;27;20210;-43
2023/10/25 11:16:03;;;;;;;0.90;0.90;;;;;;;;;;5134315;27;20637;-41
2023/10/25 11:18:30;;;;;;;0.60;0.60;;;;;;;;;;5130180;27;20199;-41
2023/10/25 11:20:57;;;;;;;1.33;0.70;;;;;;;;;;5139089;27;20318;-44
2023/10/25 11:23:24;;;;;;;0.60;0.60;;;;;;;;;;5131696;27;20214;-44
2023/10/25 11:25:52;;;;;;;2.17;0.63;;;;;;;;;;5124321;27;20217;-44
2023/10/25 11:28:20;;;;;;;0.70;0.70;;;;;;;;;;5126720;27;20215;-40
2023/10/25 11:30:48;;;;;;;1.37;1.27;;;;;;;;;;5135109;27;20227;-46
2023/10/25 11:33:16;;;;;;;0.90;0.90;;;;;;;;;;5139561;27;20199;-45
2023/10/25 11:35:44;;;;;;;1.93;0.80;;;;;;;;;;5128106;27;20206;-45
2023/10/25 11:38:11;;;;;;;0.90;0.70;;;;;;;;;;5127629;27;20680;-42
2023/10/25 11:40:39;;;;;;;0.60;0.60;;;;;;;;;;5127854;27;20238;-38
2023/10/25 11:43:07;;;;;;;1.03;0.80;;;;;;;;;;5129247;27;20207;-45
2023/10/25 11:45:34;;;;;;;0.63;0.63;;;;;;;;;;5133156;27;20204;-43
2023/10/25 11:48:01;;;;;;;0.70;0.70;;;;;;;;;;5137712;27;20214;-44
2023/10/25 11:50:30;;;;;;;0.60;0.60;;;;;;;;;;5130498;27;20230;-44
2023/10/25 11:52:58;;;;;;;0.50;0.50;;;;;;;;;;5134210;27;20203;-44
2023/10/25 11:55:27;;;;;;;0.60;0.60;;;;;;;;;;5129432;27;20222;-43
2023/10/25 11:57:54;;;;;;;0.53;0.40;;;;;;;;;;5120470;27;20207;-43
2023/10/25 12:00:21;;;;;;;0.60;0.60;;;;;;;;;;5132965;27;20226;-40
2023/10/25 12:02:48;;;;;;;0.67;0.67;;;;;;;;;;5135201;27;20203;-43
2023/10/25 12:05:15;;;;;;;0.43;0.43;;;;;;;;;;5127079;27;20322;-43
2023/10/25 12:07:44;;;;;;;0.53;0.50;;;;;;;;;;5140963;27;20735;-42
2023/10/25 12:10:11;;;;;;;0.70;0.70;;;;;;;;;;5129034;27;20311;-43
2023/10/25 12:12:40;;;;;;;0.73;0.60;;;;;;;;;;5126445;27;20206;-41
2023/10/25 12:15:08;;;;;;;0.70;0.70;;;;;;;;;;5133613;27;20278;-45
2023/10/25 12:17:35;;;;;;;0.80;0.50;;;;;;;;;;5131658;27;20279;-43
2023/10/25 12:20:02;;;;;;;0.73;0.60;;;;;;;;;;5115894;27;20215;-42
2023/10/25 12:22:29;;;;;;;1.10;0.60;;;;;;;;;;5133213;27;20225;-39
2023/10/25 12:24:58;;;;;;;1.03;0.50;;;;;;;;;;5133020;27;20205;-42
2023/10/25 12:27:25;;;;;;;0.67;0.50;;;;;;;;;;5126243;27;20283;-44
2023/10/25 12:29:52;;;;;;;0.77;0.63;;;;;;;;;;5132682;27;20227;-44
2023/10/25 12:32:21;;;;;;;0.60;0.60;;;;;;;;;;5132015;27;20295;-44
2023/10/25 12:34:49;;;;;;;0.90;0.87;;;;;;;;;;5128520;27;20286;-45
2023/10/25 12:37:16;;;;;;;1.13;0.70;;;;;;;;;;5132107;27;20195;-42
2023/10/25 12:39:44;;;;;;;0.73;0.73;;;;;;;;;;5132777;27;20224;-46
2023/10/25 12:42:12;;;;;;;0.53;0.53;;;;;;;;;;5128185;27;20691;-40
2023/10/25 12:44:39;;;;;;;0.77;0.60;;;;;;;;;;5129861;27;20207;-42
2023/10/25 12:47:06;;;;;;;0.60;0.60;;;;;;;;;;5132043;27;20200;-42
2023/10/25 12:49:34;;;;;;;0.50;0.50;;;;;;;;;;5123293;27;20231;-41
2023/10/25 12:52:04;;;;;;;0.60;0.60;;;;;;;;;;5116153;27;20196;-40
2023/10/25 12:54:31;;;;;;;0.50;0.50;;;;;;;;;;5132554;27;20196;-46
2023/10/25 12:56:59;;;;;;;0.50;0.50;;;;;;;;;;5122967;27;20201;-43
2023/10/25 12:59:27;;;;;;;0.50;0.50;;;;;;;;;;5132219;27;20216;-45
2023/10/25 13:01:54;;;;;;;0.43;0.40;;;;;;;;;;5131724;27;20651;-42
2023/10/25 13:04:22;;;;;;;0.43;0.40;;;;;;;;;;5128875;27;20202;-44
2023/10/25 13:06:49;;;;;;;1.80;0.70;;;;;;;;;;5118849;27;20254;-42
2023/10/25 13:09:17;;;;;;;1.67;0.60;;;;;;;;;;5131066;27;20225;-41
2023/10/25 13:11:44;;;;;;;1.60;0.67;;;;;;;;;;5126440;27;20203;-43
2023/10/25 13:14:12;;;;;;;0.60;0.60;;;;;;;;;;5131694;27;20211;-42
2023/10/25 13:16:40;;;;;;;1.10;0.60;;;;;;;;;;5132074;27;20293;-43
2023/10/25 13:19:07;;;;;;;3.40;0.50;;;;;;;;;;5137346;27;20221;-41
2023/10/25 13:21:35;;;;;;;2.10;0.63;;;;;;;;;;5124459;27;20216;-44
2023/10/25 13:24:02;;;;;;;0.50;0.50;;;;;;;;;;5132267;27;20195;-38
2023/10/25 13:26:29;;;;;;;0.83;0.60;;;;;;;;;;5124498;27;20260;-39
2023/10/25 13:28:59;;;;;;;1.43;0.40;;;;;;;;;;5126707;27;20224;-44
2023/10/25 13:31:26;;;;;;;0.63;0.53;;;;;;;;;;5131570;27;20202;-42
2023/10/25 13:33:55;;;;;;;0.80;0.60;;;;;;;;;;5122439;27;20204;-46
2023/10/25 13:36:22;;;;;;;0.60;0.60;;;;;;;;;;5121409;27;20224;-40
2023/10/25 13:38:49;;;;;;;0.87;0.60;;;;;;;;;;5131606;27;20252;-45
2023/10/25 13:41:17;;;;;;;1.67;0.50;;;;;;;;;;5129982;27;20219;-44
2023/10/25 13:43:48;;;;;;;0.53;0.53;;;;;;;;;;5136609;27;20290;-42
2023/10/25 13:46:15;;;;;;;0.60;0.60;;;;;;;;;;5132563;27;20225;-42
2023/10/25 13:48:42;;;;;;;0.77;0.60;;;;;;;;;;5129808;27;20222;-45
2023/10/25 13:51:11;;;;;;;1.13;0.67;;;;;;;;;;5132573;27;20197;-44
2023/10/25 13:53:38;;;;;;;0.47;0.47;;;;;;;;;;5131984;27;20204;-46
2023/10/25 13:56:08;;;;;;;2.97;0.73;;;;;;;;;;5111395;27;20207;-46
2023/10/25 13:58:35;;;;;;;1.30;0.60;;;;;;;;;;5135874;27;20252;-43
2023/10/25 14:01:03;;;;;;;0.60;0.60;;;;;;;;;;5131480;27;20666;-45
2023/10/25 14:03:31;;;;;;;0.87;0.60;;;;;;;;;;5131829;27;20217;-43
2023/10/25 14:06:03;;;;;;;2.97;0.70;;;;;;;;;;5123076;27;20258;-43
2023/10/25 14:08:31;;;;;;;0.60;0.60;;;;;;;;;;5125840;27;20205;-41
2023/10/25 14:10:58;;;;;;;0.73;0.50;;;;;;;;;;5123636;27;20604;-45
2023/10/25 14:13:25;;;;;;;0.47;0.47;;;;;;;;;;5126742;27;20202;-41
2023/10/25 14:15:53;;;;;;;0.57;0.57;;;;;;;;;;5131149;27;20286;-42
2023/10/25 14:18:20;;;;;;;0.60;0.60;;;;;;;;;;5136431;27;20199;-43
2023/10/25 14:20:47;;;;;;;0.50;0.50;;;;;;;;;;5124777;27;20201;-39
2023/10/25 14:23:14;;;;;;;0.60;0.60;;;;;;;;;;5135717;27;20316;-41
2023/10/25 14:25:43;;;;;;;1.43;0.70;;;;;;;;;;5123729;27;20226;-45
2023/10/25 14:28:10;;;;;;;0.57;0.57;;;;;;;;;;5122104;27;20294;-38
2023/10/25 14:30:39;;;;;;;0.43;0.43;;;;;;;;;;5121523;27;20472;-43
2023/10/25 14:33:06;;;;;;;1.30;0.60;;;;;;;;;;5134533;27;20206;-44
2023/10/25 14:35:34;;;;;;;0.50;0.50;;;;;;;;;;5133483;27;20209;-43
2023/10/25 14:38:01;;;;;;;1.17;0.70;;;;;;;;;;5128424;27;20697;-41
2023/10/25 14:40:28;;;;;;;1.37;0.60;;;;;;;;;;5126485;27;20222;-41
2023/10/25 14:42:58;;;;;;;0.60;0.60;;;;;;;;;;5124763;27;20229;-45
2023/10/25 14:45:25;;;;;;;3.33;0.80;;;;;;;;;;5123253;27;20293;-46
2023/10/25 14:47:53;;;;;;;0.60;0.60;;;;;;;;;;5119571;27;20204;-39